Alice, North Dakota
Current Conditions -  °F | °C
As of 3:15 AM on Monday 24 Nov 2014 (Local Time) from KBAC Reporting Station
Light Snow Light Snow  
Wind Chill: -21°   Ceiling: 1100
Heat Index: -11°   Visibility: 5mi
Dew Point: -13°   Wind: 21mph
Humidity: 85%   Direction: 350°N
Pressure: 29.62"   Gusts: 29mph
Location:  46.7681°N, 97.6777°W
Report Text: KBAC 240915Z AUTO 35018G25KT 5SM -SN BKN011 OVC034 M11/M13 A2962 RMK AO2 P0002
Loading
Personal Weather Stations






























Interactive Weather Map New forecast layout! Learn more

10-Day Weather Forecast

Advertisements
Track Severe Weather on mobile